Acorn, Kentucky
Current Conditions -  °F | °C
As of 11:15 AM on Sunday 23 Nov 2014 (Local Time) from KSME Reporting Station
Light Rain Light Rain  
Wind Chill: 52°   Ceiling: 10000
Heat Index: 52°   Visibility: 10mi
Dew Point: 41°   Wind: 5mph
Humidity: 67%   Direction: 110°ESE
Pressure: 29.92"   Gusts: NA
Location:  37.0813°N, 84.4741°W
Report Text: KSME 231615Z AUTO 11004KT 10SM -RA SCT075 OVC100 11/05 A2992 RMK AO2 LTG DSNT S
Loading
Personal Weather Stations






























Interactive Weather Map New forecast layout! Learn more

10-Day Weather Forecast

Advertisements
Track Severe Weather on mobile